Time;durP1;ratioP1;P1;durP2;ratioP2;P2;SDS_P1;SDS_P2;PMS_P1;PMS_P2;Temp;Humidity;BMP_temperature;BMP_pressure;BME280_temperature;BME280_humidity;BME280_pressure;Samples;Min_cycle;Max_cycle;Signal;HPM_P1;HPM_P2
2023/07/15 00:00:18;;;;;;;7.43;4.07;;;;;;;25.79;45.68;100412.38;5049200;28;20044;-45
2023/07/15 00:02:45;;;;;;;6.75;3.85;;;;;;;25.86;45.52;100405.69;5050981;28;20037;-44
2023/07/15 00:05:20;;;;;;;7.90;4.28;;;;;;;25.90;45.38;100409.06;5051327;28;20047;-44
2023/07/15 00:07:49;;;;;;;9.75;4.10;;;;;;;25.88;45.59;100413.63;5032394;28;20047;-50
2023/07/15 00:10:15;;;;;;;9.43;4.47;;;;;;;25.93;45.42;100408.03;5050063;28;20043;-47
2023/07/15 00:12:41;;;;;;;9.57;4.32;;;;;;;25.83;45.19;100418.38;5050979;28;20075;-45
2023/07/15 00:15:09;;;;;;;7.95;4.20;;;;;;;25.83;44.92;100427.25;5054860;28;20124;-46
2023/07/15 00:17:34;;;;;;;7.10;3.97;;;;;;;25.79;44.79;100428.38;5055078;28;20041;-49
2023/07/15 00:20:00;;;;;;;8.93;4.20;;;;;;;25.78;45.12;100433.81;5054008;28;20116;-48
2023/07/15 00:22:25;;;;;;;10.20;4.38;;;;;;;25.75;45.00;100442.84;5054955;28;20527;-45
2023/07/15 00:24:51;;;;;;;8.27;4.00;;;;;;;25.81;44.78;100434.47;5053496;28;20037;-45
2023/07/15 00:27:16;;;;;;;9.68;4.50;;;;;;;25.61;45.20;100433.91;5052838;28;20040;-48
2023/07/15 00:29:42;;;;;;;8.80;3.88;;;;;;;25.74;44.78;100416.22;5052259;28;20073;-44
2023/07/15 00:32:17;;;;;;;8.40;4.15;;;;;;;25.84;44.54;100415.63;5053331;28;20040;-46
2023/07/15 00:34:42;;;;;;;5.78;4.20;;;;;;;25.81;44.53;100420.25;5053544;28;20052;-46
2023/07/15 00:37:08;;;;;;;7.50;4.22;;;;;;;25.83;44.50;100427.25;5053740;28;20033;-45
2023/07/15 00:39:33;;;;;;;6.10;4.00;;;;;;;25.81;44.64;100430.94;5052606;28;20526;-52
2023/07/15 00:42:05;;;;;;;7.25;4.43;;;;;;;25.63;45.15;100437.31;5051911;28;20033;-45
2023/07/15 00:44:30;;;;;;;11.02;4.30;;;;;;;25.69;44.81;100459.19;5018711;28;20068;-45
2023/07/15 00:47:12;;;;;;;7.15;3.80;;;;;;;25.53;45.51;100457.44;5052199;28;20064;-47
2023/07/15 00:49:38;;;;;;;8.13;4.00;;;;;;;25.31;45.59;100450.59;5051421;28;20075;-46
2023/07/15 00:52:10;;;;;;;7.70;4.00;;;;;;;25.11;46.90;100461.50;5052419;28;20029;-48
2023/07/15 00:54:39;;;;;;;8.80;3.90;;;;;;;25.10;47.13;100465.09;5052649;28;20086;-46
2023/07/15 00:57:07;;;;;;;6.53;3.70;;;;;;;24.99;48.07;100471.00;5050599;28;20112;-45
2023/07/15 00:59:33;;;;;;;10.82;3.60;;;;;;;24.91;48.68;100475.84;5050784;28;20036;-49
2023/07/15 01:01:59;;;;;;;6.32;3.25;;;;;;;24.97;48.38;100466.69;5051591;28;20029;-50
2023/07/15 01:04:25;;;;;;;6.28;3.50;;;;;;;25.15;48.27;100459.50;5056159;28;20093;-47
2023/07/15 01:06:50;;;;;;;7.72;3.33;;;;;;;25.17;48.19;100452.28;5033917;28;20128;-43
2023/07/15 01:09:16;;;;;;;5.43;2.95;;;;;;;25.13;48.38;100461.41;5051874;28;20745;-47
2023/07/15 01:11:41;;;;;;;7.68;3.30;;;;;;;25.00;49.11;100463.88;5051609;28;20037;-45
2023/07/15 01:14:09;;;;;;;6.43;3.40;;;;;;;25.02;48.75;100457.50;5051151;28;20041;-50
2023/07/15 01:16:35;;;;;;;8.40;3.30;;;;;;;24.94;49.33;100461.53;5051334;28;20126;-46
2023/07/15 01:19:00;;;;;;;6.72;3.28;;;;;;;24.91;48.93;100453.66;5048977;28;20091;-46
2023/07/15 01:21:29;;;;;;;6.03;3.28;;;;;;;24.85;49.62;100451.28;5052175;28;20127;-49
2023/07/15 01:23:54;;;;;;;8.13;3.63;;;;;;;24.74;50.31;100456.31;5051891;28;20044;-45
2023/07/15 01:26:20;;;;;;;6.32;3.20;;;;;;;24.70;50.60;100465.41;5051180;28;20041;-43
2023/07/15 01:28:45;;;;;;;7.45;3.28;;;;;;;24.65;50.89;100449.63;5050523;28;20056;-43
2023/07/15 01:31:12;;;;;;;5.65;3.30;;;;;;;24.68;51.41;100454.84;5052199;28;20029;-43
2023/07/15 01:33:37;;;;;;;6.85;3.55;;;;;;;24.69;51.49;100453.91;5034260;28;20033;-44
2023/07/15 01:36:04;;;;;;;7.43;3.50;;;;;;;24.67;51.78;100448.63;5052573;28;20040;-45
2023/07/15 01:38:30;;;;;;;6.38;3.50;;;;;;;24.67;51.72;100453.09;5053251;28;20060;-50
2023/07/15 01:40:55;;;;;;;8.07;3.35;;;;;;;24.62;52.19;100461.34;5053497;28;20437;-46
2023/07/15 01:43:21;;;;;;;5.53;3.17;;;;;;;24.70;51.98;100460.94;5052181;28;20041;-46
2023/07/15 01:45:46;;;;;;;5.97;3.20;;;;;;;24.76;51.89;100459.78;5034376;28;20040;-48
2023/07/15 01:48:11;;;;;;;7.07;3.10;;;;;;;24.84;51.81;100457.56;5035504;28;20040;-43
2023/07/15 01:50:37;;;;;;;6.72;3.00;;;;;;;24.99;51.33;100462.13;5052666;28;20037;-50
2023/07/15 01:53:02;;;;;;;7.95;3.10;;;;;;;24.86;52.03;100461.88;5053569;28;20372;-43
2023/07/15 01:55:28;;;;;;;6.72;2.85;;;;;;;24.94;51.91;100457.03;5052382;28;20511;-45
2023/07/15 01:57:53;;;;;;;8.30;3.00;;;;;;;24.75;53.58;100461.56;5053423;28;20047;-44
2023/07/15 02:00:20;;;;;;;10.73;2.92;;;;;;;24.99;52.92;100459.47;5053003;28;20029;-46
2023/07/15 02:02:46;;;;;;;6.75;2.83;;;;;;;24.98;53.56;100463.06;5034375;28;20041;-45
2023/07/15 02:05:11;;;;;;;3.35;2.53;;;;;;;25.13;53.20;100461.41;5052814;28;20504;-45
2023/07/15 02:07:37;;;;;;;4.20;2.33;;;;;;;25.02;54.20;100469.97;5052037;28;20036;-44
2023/07/15 02:10:03;;;;;;;4.40;2.40;;;;;;;25.08;54.16;100458.97;5050217;28;20476;-44
2023/07/15 02:12:28;;;;;;;5.65;2.60;;;;;;;24.79;55.48;100457.78;5051081;28;20045;-47
2023/07/15 02:14:54;;;;;;;4.63;2.50;;;;;;;25.05;54.75;100456.47;5050495;28;20459;-43
2023/07/15 02:17:22;;;;;;;4.25;2.30;;;;;;;24.94;55.30;100458.84;5051092;28;20060;-47
2023/07/15 02:19:51;;;;;;;8.43;2.70;;;;;;;24.87;55.75;100458.28;5049577;28;20127;-50
2023/07/15 02:22:17;;;;;;;9.50;2.58;;;;;;;25.01;55.58;100462.91;5050701;28;20049;-45
2023/07/15 02:24:42;;;;;;;4.65;2.50;;;;;;;24.98;55.72;100463.94;5049954;28;20368;-45
2023/07/15 02:27:08;;;;;;;4.53;2.40;;;;;;;24.72;57.17;100464.38;5050571;28;20044;-44
2023/07/15 02:29:34;;;;;;;5.68;2.40;;;;;;;25.03;55.96;100461.03;5050163;28;20060;-44
2023/07/15 02:32:00;;;;;;;4.82;2.28;;;;;;;24.99;56.12;100460.31;5050020;28;20377;-46
2023/07/15 02:34:25;;;;;;;3.72;2.38;;;;;;;25.06;55.58;100450.19;5050211;28;20048;-46
2023/07/15 02:36:52;;;;;;;6.45;2.35;;;;;;;25.01;55.99;100450.41;5050098;28;20037;-47
2023/07/15 02:39:18;;;;;;;6.43;2.50;;;;;;;25.08;55.99;100450.97;5049931;28;20461;-47
2023/07/15 02:41:44;;;;;;;5.90;2.33;;;;;;;24.94;56.47;100462.38;5049926;28;20134;-45
2023/07/15 02:44:10;;;;;;;5.80;2.53;;;;;;;24.89;56.68;100461.72;5050404;28;20063;-44
2023/07/15 02:46:35;;;;;;;4.05;2.30;;;;;;;24.96;56.72;100467.59;5050158;28;20501;-47
2023/07/15 02:49:01;;;;;;;5.45;2.40;;;;;;;24.75;57.42;100460.72;5048950;28;20033;-44
2023/07/15 02:51:26;;;;;;;3.72;2.35;;;;;;;24.78;57.62;100458.72;5050408;28;20491;-44
2023/07/15 02:53:52;;;;;;;5.20;2.58;;;;;;;24.93;56.84;100454.47;5049933;28;20507;-47
2023/07/15 02:56:17;;;;;;;5.88;2.72;;;;;;;24.84;57.31;100442.41;5050250;28;20045;-46
2023/07/15 02:58:43;;;;;;;6.60;2.50;;;;;;;24.80;58.16;100451.53;5049671;28;20125;-44
2023/07/15 03:01:09;;;;;;;3.97;2.50;;;;;;;24.87;57.40;100454.75;5049801;28;20124;-46
2023/07/15 03:03:35;;;;;;;7.47;2.65;;;;;;;25.00;56.93;100450.53;5049929;28;20041;-45
2023/07/15 03:06:01;;;;;;;4.45;2.63;;;;;;;24.94;57.19;100454.38;5049373;28;20116;-45
2023/07/15 03:08:27;;;;;;;5.13;2.67;;;;;;;24.86;57.50;100455.69;5049679;28;20502;-49
2023/07/15 03:10:52;;;;;;;5.25;2.70;;;;;;;24.66;58.53;100468.22;5048537;28;20040;-45
2023/07/15 03:13:18;;;;;;;5.32;2.67;;;;;;;24.57;59.12;100465.19;5049585;28;20033;-46
2023/07/15 03:15:44;;;;;;;4.43;2.58;;;;;;;24.78;58.55;100458.72;5049135;28;20073;-49
2023/07/15 03:18:10;;;;;;;4.63;2.80;;;;;;;24.72;58.97;100455.53;5049624;28;20499;-49
2023/07/15 03:20:35;;;;;;;5.28;3.20;;;;;;;24.83;58.22;100456.69;5049224;28;20047;-47
2023/07/15 03:23:00;;;;;;;5.18;2.97;;;;;;;24.84;58.35;100457.56;5049222;28;20040;-46
2023/07/15 03:25:26;;;;;;;7.20;3.30;;;;;;;24.97;57.68;100453.34;5049850;28;20529;-45
2023/07/15 03:27:51;;;;;;;5.60;3.15;;;;;;;24.97;58.03;100454.22;5049296;28;20040;-48
2023/07/15 03:30:17;;;;;;;5.43;3.40;;;;;;;24.81;58.71;100457.72;5049562;28;20029;-52
2023/07/15 03:32:44;;;;;;;4.55;3.40;;;;;;;24.88;58.26;100464.47;5049618;28;20083;-46
2023/07/15 03:35:09;;;;;;;4.85;3.20;;;;;;;24.96;58.18;100452.47;5050663;28;20044;-44
2023/07/15 03:37:36;;;;;;;4.30;3.05;;;;;;;24.97;57.86;100456.00;5051639;28;20115;-46
2023/07/15 03:40:05;;;;;;;7.57;3.13;;;;;;;25.03;57.81;100461.03;5050689;28;20029;-47
2023/07/15 03:42:30;;;;;;;5.32;3.30;;;;;;;24.86;58.64;100461.00;5051237;28;20044;-44
2023/07/15 03:44:56;;;;;;;4.53;3.20;;;;;;;24.94;58.00;100459.72;5048785;28;20045;-48
2023/07/15 03:47:21;;;;;;;5.65;3.47;;;;;;;24.96;58.38;100459.63;5049958;28;20502;-44
2023/07/15 03:49:47;;;;;;;5.85;3.22;;;;;;;24.80;58.62;100462.19;5048726;28;20044;-46
2023/07/15 03:52:12;;;;;;;5.25;3.30;;;;;;;24.98;58.16;100457.75;5049773;28;20128;-45
2023/07/15 03:54:38;;;;;;;5.95;3.30;;;;;;;24.86;58.45;100461.88;5049199;28;20029;-49
2023/07/15 03:57:03;;;;;;;5.53;3.08;;;;;;;24.92;58.23;100464.25;5049328;28;20086;-45
2023/07/15 03:59:29;;;;;;;5.93;3.05;;;;;;;24.37;59.94;100460.84;5049156;28;20041;-49
2023/07/15 04:01:54;;;;;;;4.90;2.60;;;;;;;24.78;58.37;100464.06;5049248;28;20029;-44
2023/07/15 04:04:21;;;;;;;6.22;2.67;;;;;;;25.01;57.31;100465.56;5050913;28;20037;-43
2023/07/15 04:06:46;;;;;;;4.07;2.70;;;;;;;25.05;57.14;100472.47;5051076;28;20044;-44
2023/07/15 04:09:12;;;;;;;4.72;2.53;;;;;;;24.94;57.37;100464.19;5050357;28;20032;-44
2023/07/15 04:11:39;;;;;;;5.25;2.40;;;;;;;25.06;56.95;100474.22;5049388;28;20071;-47
2023/07/15 04:14:05;;;;;;;4.38;2.58;;;;;;;25.02;57.20;100480.63;5051182;28;20047;-45
2023/07/15 04:16:31;;;;;;;9.23;2.30;;;;;;;25.00;57.30;100482.53;5051471;28;20029;-43
2023/07/15 04:18:56;;;;;;;6.47;2.40;;;;;;;24.75;58.30;100479.38;5049287;28;21453;-46
2023/07/15 04:21:22;;;;;;;4.70;2.50;;;;;;;24.37;59.91;100497.28;5049331;28;20068;-48
2023/07/15 04:23:47;;;;;;;3.60;1.95;;;;;;;24.74;58.37;100494.50;5048554;28;20071;-44
2023/07/15 04:26:14;;;;;;;5.18;2.03;;;;;;;24.76;57.68;100495.31;5049329;28;20433;-48
2023/07/15 04:28:39;;;;;;;3.65;2.05;;;;;;;24.77;57.71;100504.13;5048653;28;20048;-48
2023/07/15 04:31:05;;;;;;;4.72;1.80;;;;;;;24.64;57.76;100509.25;5048805;28;20105;-45
2023/07/15 04:33:31;;;;;;;9.75;1.95;;;;;;;24.64;57.11;100503.91;5049285;28;20045;-50
2023/07/15 04:35:56;;;;;;;5.47;1.77;;;;;;;24.50;58.00;100512.59;5048571;28;20033;-44
2023/07/15 04:38:22;;;;;;;3.67;1.60;;;;;;;24.31;57.60;100505.56;5049546;28;20491;-46
2023/07/15 04:40:48;;;;;;;6.30;1.70;;;;;;;24.49;56.61;100512.66;5048594;28;20087;-50
2023/07/15 04:43:13;;;;;;;5.75;1.55;;;;;;;24.40;56.14;100510.44;5049106;28;20049;-49
2023/07/15 04:45:38;;;;;;;6.20;1.60;;;;;;;24.70;54.86;100508.06;5046339;28;20041;-45
2023/07/15 04:48:04;;;;;;;5.78;1.60;;;;;;;24.70;54.87;100513.41;5048962;28;20041;-46
2023/07/15 04:50:30;;;;;;;4.05;1.52;;;;;;;24.59;54.99;100514.78;5048853;28;20037;-47
2023/07/15 04:52:55;;;;;;;5.82;1.67;;;;;;;24.73;53.95;100492.78;5048295;28;20040;-52
2023/07/15 04:55:21;;;;;;;4.75;1.70;;;;;;;24.59;54.05;100497.94;5048800;28;20033;-47
2023/07/15 04:57:46;;;;;;;5.45;1.75;;;;;;;24.48;54.94;100495.81;5048369;28;20036;-47
2023/07/15 05:00:12;;;;;;;4.85;1.73;;;;;;;24.39;54.81;100504.28;5048985;28;20151;-47
2023/07/15 05:02:38;;;;;;;4.32;1.73;;;;;;;24.63;53.96;100503.06;5052164;28;20041;-49
2023/07/15 05:05:05;;;;;;;4.57;1.60;;;;;;;24.58;53.91;100507.72;5052465;28;20423;-45
2023/07/15 05:07:33;;;;;;;5.65;1.52;;;;;;;24.57;53.75;100503.38;5052301;28;20041;-47
2023/07/15 05:09:59;;;;;;;6.20;1.80;;;;;;;24.54;54.33;100502.63;5051342;28;20028;-47
2023/07/15 05:12:26;;;;;;;5.80;1.85;;;;;;;24.50;54.88;100506.41;5052557;28;20036;-51
2023/07/15 05:14:51;;;;;;;4.38;1.65;;;;;;;24.42;55.18;100509.44;5052091;28;20086;-44
2023/07/15 05:17:17;;;;;;;7.00;2.00;;;;;;;24.38;55.55;100515.00;5052753;28;20123;-44
2023/07/15 05:19:42;;;;;;;6.00;1.80;;;;;;;24.75;54.92;100506.91;5052145;28;20033;-45
2023/07/15 05:22:07;;;;;;;4.47;1.63;;;;;;;24.49;55.13;100529.53;5052965;28;20045;-44
2023/07/15 05:24:33;;;;;;;6.57;1.70;;;;;;;24.14;56.65;100512.56;5052800;28;20064;-48
2023/07/15 05:26:58;;;;;;;3.95;1.65;;;;;;;24.18;55.50;100519.50;5052936;28;20041;-45
2023/07/15 05:29:24;;;;;;;5.50;1.70;;;;;;;24.11;55.46;100514.50;5051997;28;20057;-47
2023/07/15 05:31:50;;;;;;;7.43;1.80;;;;;;;24.22;54.04;100515.72;5051320;28;20036;-46
2023/07/15 05:34:15;;;;;;;6.15;1.80;;;;;;;24.02;53.95;100517.63;5033877;28;20044;-47
2023/07/15 05:36:41;;;;;;;7.53;2.00;;;;;;;24.31;52.81;100517.09;5051492;28;20095;-44
2023/07/15 05:39:06;;;;;;;5.78;1.80;;;;;;;24.32;52.68;100508.19;5052560;28;20072;-42
2023/07/15 05:41:32;;;;;;;4.75;1.50;;;;;;;24.58;52.45;100514.84;5054471;28;20041;-50
2023/07/15 05:43:57;;;;;;;4.90;1.70;;;;;;;24.74;52.03;100521.16;5054175;28;20403;-46
2023/07/15 05:46:22;;;;;;;6.43;1.92;;;;;;;24.61;52.43;100525.38;5032383;28;20497;-47
2023/07/15 05:48:48;;;;;;;5.07;1.80;;;;;;;24.74;52.27;100526.50;5050956;28;20487;-48
2023/07/15 05:51:13;;;;;;;5.00;1.52;;;;;;;24.86;52.38;100517.00;5050883;28;20047;-45
2023/07/15 05:53:41;;;;;;;7.15;1.83;;;;;;;24.87;52.20;100521.41;5050971;28;20032;-45
2023/07/15 05:56:07;;;;;;;5.93;1.83;;;;;;;24.58;53.05;100531.72;5051520;28;20041;-44
2023/07/15 05:58:32;;;;;;;8.77;2.20;;;;;;;24.46;53.18;100524.31;5051358;28;20037;-42
2023/07/15 06:00:57;;;;;;;6.43;1.70;;;;;;;24.40;54.02;100532.63;5032274;28;20392;-45
2023/07/15 06:03:23;;;;;;;5.97;1.77;;;;;;;24.79;52.72;100532.44;5033633;28;20052;-47
2023/07/15 06:05:48;;;;;;;4.45;1.70;;;;;;;24.63;52.31;100537.72;5051067;28;20037;-46
2023/07/15 06:08:14;;;;;;;4.28;1.80;;;;;;;24.54;53.30;100538.16;5051700;28;20041;-47
2023/07/15 06:10:42;;;;;;;5.28;1.98;;;;;;;24.90;52.00;100542.59;5050168;28;20037;-50
2023/07/15 06:13:08;;;;;;;5.03;1.95;;;;;;;24.76;52.01;100539.75;5050755;28;20056;-47
2023/07/15 06:15:35;;;;;;;5.97;1.70;;;;;;;25.06;51.50;100535.56;5050800;28;20033;-53
2023/07/15 06:18:01;;;;;;;7.88;1.83;;;;;;;25.13;51.33;100533.44;5032785;28;20037;-49
2023/07/15 06:20:27;;;;;;;7.25;2.70;;;;;;;25.29;51.03;100523.69;5050878;28;20033;-45
2023/07/15 06:22:52;;;;;;;7.60;4.13;;;;;;;25.08;51.71;100527.44;5032348;28;20037;-52
2023/07/15 06:25:17;;;;;;;5.63;2.00;;;;;;;25.06;50.89;100516.88;5050763;28;20037;-50
2023/07/15 06:27:43;;;;;;;7.95;2.05;;;;;;;25.30;50.93;100520.94;5048996;28;20124;-43
2023/07/15 06:30:08;;;;;;;6.78;2.08;;;;;;;25.85;49.02;100532.19;5050563;28;20487;-48
2023/07/15 06:32:34;;;;;;;6.13;1.77;;;;;;;26.31;48.58;100532.31;5050942;28;20065;-50
2023/07/15 06:34:59;;;;;;;6.20;1.70;;;;;;;26.69;47.24;100538.13;5050020;28;20029;-44
2023/07/15 06:37:24;;;;;;;5.20;1.70;;;;;;;26.83;47.08;100534.63;5051032;28;20588;-46
2023/07/15 06:39:50;;;;;;;6.53;1.70;;;;;;;27.20;46.38;100536.84;5050225;28;20517;-47
2023/07/15 06:42:15;;;;;;;5.65;2.05;;;;;;;27.13;45.93;100538.19;5050737;28;20033;-47
2023/07/15 06:44:40;;;;;;;5.78;1.90;;;;;;;27.31;45.05;100530.84;5048599;28;20028;-49
2023/07/15 06:47:06;;;;;;;7.13;1.85;;;;;;;27.22;45.71;100531.41;5051367;28;20406;-46
2023/07/15 06:49:31;;;;;;;6.13;1.92;;;;;;;27.23;45.61;100531.31;5050601;28;20487;-48
2023/07/15 06:51:56;;;;;;;5.00;2.00;;;;;;;27.21;44.90;100530.53;5050634;28;20446;-45
2023/07/15 06:54:23;;;;;;;6.80;1.90;;;;;;;27.11;44.93;100531.19;5051119;28;20029;-45
2023/07/15 06:56:48;;;;;;;5.22;1.77;;;;;;;26.46;46.74;100536.78;5050259;28;20044;-50
2023/07/15 06:59:14;;;;;;;4.60;1.88;;;;;;;26.71;44.71;100528.19;5050555;28;20643;-44
2023/07/15 07:01:39;;;;;;;4.28;1.67;;;;;;;26.94;44.19;100526.88;5050626;28;20048;-49
2023/07/15 07:04:05;;;;;;;3.97;1.85;;;;;;;26.95;43.41;100525.91;5051050;28;20025;-45
2023/07/15 07:06:30;;;;;;;6.97;2.00;;;;;;;27.23;44.06;100530.44;5050945;28;20102;-50
2023/07/15 07:08:56;;;;;;;3.15;1.48;;;;;;;27.63;42.27;100529.72;5050320;28;20419;-51
2023/07/15 07:11:21;;;;;;;5.03;1.67;;;;;;;27.29;42.19;100530.94;5051422;28;20116;-44
2023/07/15 07:13:47;;;;;;;6.32;1.90;;;;;;;27.18;43.12;100545.94;5050432;28;20048;-44
2023/07/15 07:16:12;;;;;;;5.50;1.80;;;;;;;27.24;43.05;100537.53;5051135;28;20041;-47
2023/07/15 07:18:38;;;;;;;4.85;1.70;;;;;;;27.55;43.03;100526.69;5050062;28;20059;-50
2023/07/15 07:21:03;;;;;;;5.28;1.85;;;;;;;27.49;42.88;100520.81;5050121;28;20025;-46
2023/07/15 07:23:31;;;;;;;3.30;1.58;;;;;;;27.55;43.21;100521.34;5049737;28;20403;-47
2023/07/15 07:25:57;;;;;;;9.95;1.67;;;;;;;27.80;42.71;100534.03;5050442;28;20041;-47
2023/07/15 07:28:24;;;;;;;4.68;1.70;;;;;;;27.62;43.65;100535.19;5033207;28;20041;-50
2023/07/15 07:30:50;;;;;;;5.35;1.75;;;;;;;28.27;41.69;100527.47;5051137;28;20029;-48
2023/07/15 07:33:15;;;;;;;4.03;1.75;;;;;;;28.77;40.43;100538.44;5051808;28;20051;-49
2023/07/15 07:35:45;;;;;;;3.67;1.35;;;;;;;28.91;40.85;100532.13;5049994;28;20565;-48
2023/07/15 07:38:10;;;;;;;3.72;1.60;;;;;;;28.81;40.87;100533.69;5050190;28;20033;-45
2023/07/15 07:40:35;;;;;;;3.95;1.50;;;;;;;28.77;39.89;100529.50;5049604;28;20128;-50
2023/07/15 07:43:01;;;;;;;3.35;1.33;;;;;;;29.70;38.44;100530.13;5050784;28;20056;-45
2023/07/15 07:45:26;;;;;;;3.15;1.38;;;;;;;30.51;37.39;100527.78;5051968;28;20214;-45
2023/07/15 07:47:51;;;;;;;3.83;1.30;;;;;;;30.25;37.25;100531.53;5050761;28;20029;-54
2023/07/15 07:50:17;;;;;;;5.55;1.40;;;;;;;30.06;37.88;100539.25;5048964;28;20072;-49
2023/07/15 07:52:42;;;;;;;3.30;1.60;;;;;;;28.86;37.90;100542.28;5048860;28;20036;-51
2023/07/15 07:55:08;;;;;;;4.68;1.60;;;;;;;29.26;37.91;100540.44;5050324;28;20029;-47
2023/07/15 07:57:34;;;;;;;4.15;1.73;;;;;;;29.25;37.14;100544.09;5049950;28;20033;-48
2023/07/15 07:59:59;;;;;;;5.45;1.50;;;;;;;29.00;37.82;100547.59;5031323;28;20086;-46
2023/07/15 08:02:25;;;;;;;4.70;1.70;;;;;;;29.24;35.74;100542.34;5050397;28;20116;-44
2023/07/15 08:04:50;;;;;;;3.85;1.60;;;;;;;29.10;34.83;100547.81;5050465;28;20063;-44
2023/07/15 08:07:16;;;;;;;4.00;1.65;;;;;;;29.04;34.34;100563.38;5050917;28;20048;-46
2023/07/15 08:09:41;;;;;;;3.88;1.80;;;;;;;28.77;35.02;100553.66;5049845;28;20036;-46
2023/07/15 08:12:08;;;;;;;2.30;1.55;;;;;;;28.06;36.77;100562.69;5050772;28;20040;-44
2023/07/15 08:14:34;;;;;;;2.70;1.50;;;;;;;28.27;36.06;100554.28;5051060;28;20032;-46
2023/07/15 08:16:59;;;;;;;3.13;1.60;;;;;;;28.43;36.72;100558.53;5050913;28;20029;-45
2023/07/15 08:19:25;;;;;;;4.40;1.70;;;;;;;28.66;36.64;100562.41;5050823;28;20552;-52
2023/07/15 08:21:50;;;;;;;6.13;1.58;;;;;;;28.47;36.17;100556.53;5049530;28;20029;-47
2023/07/15 08:24:15;;;;;;;3.45;1.55;;;;;;;29.01;36.62;100560.91;5048946;28;20038;-47
2023/07/15 08:26:41;;;;;;;3.00;1.58;;;;;;;28.73;36.53;100565.53;5048237;28;20045;-48
2023/07/15 08:29:06;;;;;;;6.43;1.48;;;;;;;29.10;36.04;100564.78;5048605;28;20110;-46
2023/07/15 08:31:33;;;;;;;2.42;1.45;;;;;;;28.43;36.26;100566.56;5049018;28;20455;-46
2023/07/15 08:33:58;;;;;;;3.70;1.60;;;;;;;28.62;37.02;100560.84;5048429;28;20397;-48
2023/07/15 08:36:24;;;;;;;2.50;1.48;;;;;;;28.48;37.21;100567.13;5053024;28;20033;-53
2023/07/15 08:38:49;;;;;;;5.03;1.63;;;;;;;28.55;37.53;100568.44;5052530;28;20060;-46
2023/07/15 08:41:17;;;;;;;2.70;1.48;;;;;;;28.82;37.00;100568.47;5053016;28;20083;-45
2023/07/15 08:43:45;;;;;;;3.58;1.65;;;;;;;29.09;35.31;100571.13;5052565;28;20114;-46
2023/07/15 08:46:23;;;;;;;3.80;1.60;;;;;;;29.38;35.63;100580.75;5052885;28;20033;-45
2023/07/15 08:48:49;;;;;;;4.72;1.90;;;;;;;29.39;34.62;100585.16;5052384;28;20045;-48
2023/07/15 08:51:15;;;;;;;3.75;1.63;;;;;;;29.15;33.54;100577.91;5052639;28;20041;-52
2023/07/15 08:53:42;;;;;;;3.60;1.63;;;;;;;29.22;33.83;100565.75;5052469;28;20033;-49
2023/07/15 08:56:10;;;;;;;3.35;1.83;;;;;;;28.69;35.33;100582.78;5052849;28;20186;-49
2023/07/15 08:58:35;;;;;;;2.78;1.60;;;;;;;28.74;35.29;100575.31;5052484;28;20037;-47
2023/07/15 09:01:01;;;;;;;3.10;1.50;;;;;;;29.25;34.69;100571.78;5051660;28;20033;-48
2023/07/15 09:03:27;;;;;;;2.92;1.48;;;;;;;29.32;35.29;100578.47;5034775;28;20158;-47
2023/07/15 09:05:53;;;;;;;3.78;1.58;;;;;;;28.66;35.74;100581.19;5051707;28;20039;-49
2023/07/15 09:08:18;;;;;;;2.70;1.40;;;;;;;29.11;35.98;100587.97;5052542;28;20068;-47
2023/07/15 09:10:51;;;;;;;2.60;1.30;;;;;;;28.80;35.90;100593.69;5051408;28;20057;-45
2023/07/15 09:13:22;;;;;;;3.38;1.58;;;;;;;29.25;35.72;100587.03;5052692;28;20041;-45
2023/07/15 09:15:47;;;;;;;2.95;1.38;;;;;;;29.63;35.87;100598.72;5052041;28;20033;-49
2023/07/15 09:18:14;;;;;;;3.00;1.40;;;;;;;28.83;36.73;100593.50;5052882;28;20059;-43
2023/07/15 09:20:40;;;;;;;2.53;1.40;;;;;;;28.96;35.83;100613.19;5052100;28;20033;-46
2023/07/15 09:23:05;;;;;;;4.10;1.60;;;;;;;29.22;35.24;100596.16;5052521;28;20490;-45
2023/07/15 09:25:31;;;;;;;3.30;1.60;;;;;;;28.89;34.76;100596.63;5052999;28;20036;-46
2023/07/15 09:27:56;;;;;;;4.43;1.70;;;;;;;28.84;35.29;100595.22;5051922;28;21032;-49
2023/07/15 09:30:22;;;;;;;4.13;1.55;;;;;;;29.09;34.95;100594.44;5052736;28;20033;-46
2023/07/15 09:32:47;;;;;;;5.00;1.60;;;;;;;28.20;36.40;100592.19;5034936;28;20044;-44
2023/07/15 09:35:16;;;;;;;4.72;1.50;;;;;;;28.41;37.23;100600.69;5053534;28;20112;-48
2023/07/15 09:37:41;;;;;;;2.65;1.50;;;;;;;27.92;38.26;100597.56;5052233;28;20029;-48
2023/07/15 09:40:08;;;;;;;2.33;1.23;;;;;;;27.98;37.66;100599.88;5051387;28;20029;-48
2023/07/15 09:43:00;;;;;;;2.63;1.40;;;;;;;27.97;38.21;100595.47;5052376;28;20033;-45
2023/07/15 09:45:35;;;;;;;3.22;1.58;;;;;;;28.66;37.55;100597.28;5048619;28;20037;-47
2023/07/15 09:48:06;;;;;;;2.97;1.33;;;;;;;29.17;37.27;100594.75;5052849;28;20028;-45
2023/07/15 09:50:33;;;;;;;3.20;1.33;;;;;;;28.71;38.35;100600.50;5051408;28;20123;-50
2023/07/15 09:52:59;;;;;;;4.78;1.65;;;;;;;28.73;37.78;100600.41;5050883;28;20029;-47
2023/07/15 09:55:25;;;;;;;4.50;1.52;;;;;;;28.81;37.60;100604.31;5051276;28;20119;-46
2023/07/15 09:58:04;;;;;;;3.88;1.50;;;;;;;28.77;37.79;100607.31;5050683;28;20029;-46
2023/07/15 10:00:33;;;;;;;4.43;1.55;;;;;;;28.72;37.88;100604.91;5050790;28;20190;-51
2023/07/15 10:03:00;;;;;;;2.95;1.48;;;;;;;28.74;37.83;100611.06;5050590;28;20028;-49
2023/07/15 10:05:28;;;;;;;2.90;1.40;;;;;;;28.48;38.01;100617.25;5051205;28;20579;-44
2023/07/15 10:07:55;;;;;;;2.65;1.50;;;;;;;28.17;38.42;100613.00;5050936;28;20060;-44
2023/07/15 10:10:21;;;;;;;5.70;1.40;;;;;;;28.29;38.75;100606.84;5050741;28;20041;-47
2023/07/15 10:12:48;;;;;;;2.97;1.40;;;;;;;29.30;37.04;100601.88;5050464;28;20458;-48
2023/07/15 10:15:14;;;;;;;8.45;1.52;;;;;;;29.68;36.47;100601.06;5050916;28;20491;-45
2023/07/15 10:17:39;;;;;;;2.65;1.45;;;;;;;29.99;36.16;100603.34;5050253;28;20044;-49
2023/07/15 10:20:10;;;;;;;4.82;1.30;;;;;;;29.51;36.22;100593.34;5050111;28;20033;-51
2023/07/15 10:22:36;;;;;;;2.42;1.40;;;;;;;29.33;36.19;100590.97;5050973;28;20061;-46
2023/07/15 10:25:05;;;;;;;2.53;1.35;;;;;;;29.29;36.74;100594.78;5050418;28;20035;-47
2023/07/15 10:27:32;;;;;;;3.28;1.50;;;;;;;29.07;37.93;100602.56;5050959;28;20048;-44
2023/07/15 10:30:23;;;;;;;9.20;2.00;;;;;;;28.93;37.52;100592.75;5049948;28;20538;-47
2023/07/15 10:33:01;;;;;;;3.85;1.60;;;;;;;29.18;37.26;100583.06;5050331;28;20623;-45
2023/07/15 10:35:32;;;;;;;3.80;1.60;;;;;;;29.51;37.33;100583.44;5048444;28;20033;-48
2023/07/15 10:38:20;;;;;;;5.22;1.50;;;;;;;29.53;36.14;100575.25;5050030;28;20041;-49
2023/07/15 10:41:02;;;;;;;6.68;1.85;;;;;;;29.53;36.71;100570.75;5049463;28;20033;-47
2023/07/15 10:43:34;;;;;;;4.28;1.90;;;;;;;29.38;37.24;100559.28;5050735;28;20550;-48
2023/07/15 10:46:03;;;;;;;5.15;1.75;;;;;;;28.99;37.90;100565.50;5050094;28;20626;-44
2023/07/15 10:48:29;;;;;;;7.05;1.83;;;;;;;28.93;38.11;100555.19;5049242;28;20569;-48
2023/07/15 10:50:56;;;;;;;3.80;1.73;;;;;;;28.37;38.64;100561.63;5049850;28;20093;-50
2023/07/15 10:53:23;;;;;;;3.47;1.70;;;;;;;28.62;38.97;100566.22;5050800;28;20037;-49
2023/07/15 10:55:57;;;;;;;6.75;1.77;;;;;;;28.65;38.46;100555.31;5050206;28;20029;-45
2023/07/15 10:58:22;;;;;;;;;;;;;;;28.80;38.45;100554.28;5050673;28;20040;-48
2023/07/15 11:00:48;;;;;;;3.72;1.80;;;;;;;29.00;38.30;100535.03;5049404;28;20145;-44
2023/07/15 11:03:13;;;;;;;4.05;1.85;;;;;;;29.45;37.83;100540.91;5050266;28;20029;-46
2023/07/15 11:05:42;;;;;;;4.35;1.88;;;;;;;29.99;36.39;100535.28;5049549;28;20120;-48
2023/07/15 11:08:08;;;;;;;4.25;1.90;;;;;;;29.96;37.06;100528.28;5048134;28;20086;-45
2023/07/15 11:10:34;;;;;;;4.70;2.20;;;;;;;29.93;36.36;100535.72;5048512;28;20029;-44
2023/07/15 11:13:16;;;;;;;4.85;2.00;;;;;;;30.24;35.16;100535.19;5049515;28;20029;-45
2023/07/15 11:15:45;;;;;;;3.47;1.83;;;;;;;29.58;37.09;100520.25;5049711;28;20032;-45
2023/07/15 11:18:18;;;;;;;3.42;1.75;;;;;;;30.21;36.21;100527.34;5050009;28;20402;-48
2023/07/15 11:20:48;;;;;;;4.28;1.83;;;;;;;30.31;35.48;100512.25;5049283;28;20110;-49